CYXZCYSP

Guest
Details From CYXZ - WAWA
To CYSP - MARATHON
Flight Number -
Tags generated
Created
Modified
Stats Distance 78 nm / 145 km
Max Altitude 200 ft / 61 m
Waypoints 3
Social Downloads 0
Likes 0
Share VATSIM

Download

Looking for another format? Having issues loading an existing format? Contact us
Advertisement - Login to hide

Notes

Basic altitude profile: - Ascent Rate: 2500ft/min - Ascent Speed: 250kts - Cruise Altitude: 35000ft - Cruise Speed: 420kts - Descent Rate: 1500ft/min - Descent Speed: 250kts Options: - Use NATs: yes - Use PACOTS: yes - Use low airways: yes - Use high airways: yes

Route

CYXZ YSP CYSP

ID Type Via Altitude Latitude Longitude Leg Dist Tot Dist Heading (true) Name
O CYXZ APT - 0 ft / 0 m 47.96667˚ -84.78667˚ - 0 nm - WAWA
YSP VOR - 200 ft / 61 m 48.74342˚ -86.32758˚ 77 nm 77 nm 308° / 307° MARATHON VOR-DME
O CYSP APT - 0 ft / 0 m 48.75528˚ -86.34444˚ 0 nm 78 nm 317° / 317° MARATHON

Altitude Profile

Advertisement - Login to hide

CYXZ

Details ICAO CYXZ (YXZ)
Name WAWA
Region Canada
Timezone America/Toronto (UTC-5.0)
Stats Elevation 942 ft / 287 m (AMSL)
Location 47.966667° -84.786667°
Runways 1
Magnetic Variation 7.570° W

METAR

CYXZ 152300Z 03007KT 350V060 10SM FEW020 BKN037 M16/M19 A2972 RMK SC2SC5 SLP092

Decode

TAF

TAF CYXZ 151938Z 1520/1524 04010KT P6SM SCT020 BKN070 TEMPO 1520/1524 4SM -SN BKN020 OVC070 RMK NXT FCST WILL BE ISSUED AT 161245Z

Decode

Departure Runways

ID Width Length Bearing (true) Bearing (mag) Surface Threshold Offset Overrun Length
03 100 ft / 30 m 4,422 ft / 1,348 m 23.52° 31.09° Asphalt 0 ft / 0 m 0 ft / 0 m
21 100 ft / 30 m 4,422 ft / 1,348 m 203.52° 211.09° Asphalt 689 ft / 210 m 0 ft / 0 m

CYSP

Details ICAO CYSP (YSP)
Name MARATHON
Region Canada
Timezone America/Toronto (UTC-5.0)
Stats Elevation 1,035 ft / 315 m (AMSL)
Location 48.755278° -86.344444°
Runways 1
Magnetic Variation 6.465° W

METAR

Not found

TAF

TAF CYSP 151938Z 1520/1522 02010KT 4SM -SN BKN020 OVC050 TEMPO 1520/1522 P6SM NSW SCT020 OVC050 RMK NXT FCST WILL BE ISSUED AT 161445Z

Decode

Destination Runways

ID Width Length Bearing (true) Bearing (mag) Surface Threshold Offset Overrun Length
16 100 ft / 30 m 3,860 ft / 1,176 m 153.24° 159.70° Asphalt 0 ft / 0 m 0 ft / 0 m
34 100 ft / 30 m 3,860 ft / 1,176 m 333.24° 339.70° Asphalt 200 ft / 61 m 0 ft / 0 m

Popular Alternatives